This is the latest recevied weather packets stored in our database for station/object KB0BDN-13. If no packets are shown the sender has not sent any weather packets the latest 10 day(s).
| Time | Temp. | Humidity | Pressure | Rain* | Wind** | Luminosity | Snow |
|---|---|---|---|---|---|---|---|
| 1777861923 | 9.44° C | 53% | - | 0 mm | - | - | - |
| 1777861023 | 6.67° C | 65% | - | 0 mm | - | - | - |
| 1777860123 | 6.67° C | 63% | - | 0 mm | - | - | - |
| 1777859223 | 7.78° C | 59% | - | 0 mm | - | - | - |
| 1777858323 | 8.89° C | 54% | - | 0 mm | - | - | - |
| 1777857423 | 10° C | 51% | - | 0 mm | - | - | - |
| 1777856523 | 11.11° C | 48% | - | 0 mm | - | - | - |
| 1777855623 | 12.22° C | 44% | - | 0 mm | - | - | - |
| 1777854723 | 12.78° C | 42% | - | 0 mm | - | - | - |
| 1777853823 | 12.78° C | 40% | - | 0 mm | - | - | - |
| 1777852923 | 12.78° C | 40% | - | 0 mm | - | - | - |
| 1777852023 | 13.33° C | 38% | - | 0 mm | - | - | - |
| 1777851127 | 13.33° C | 37% | - | 0 mm | - | - | - |
| 1777850228 | 13.33° C | 36% | - | 0 mm | - | - | - |
| 1777849327 | 13.89° C | 36% | - | 0 mm | - | - | - |
| 1777848427 | 13.89° C | 36% | - | 0 mm | - | - | - |
| 1777847527 | 13.89° C | 34% | - | 0 mm | - | - | - |
| 1777846627 | 14.44° C | 34% | - | 0 mm | - | - | - |
| 1777845727 | 14.44° C | 34% | - | 0 mm | - | - | - |
| 1777844827 | 14.44° C | 31% | - | 0 mm | - | - | - |
| 1777843927 | 14.44° C | 34% | - | 0 mm | - | - | - |
| 1777843027 | 14.44° C | 32% | - | 0 mm | - | - | - |
| 1777842127 | 15° C | 30% | - | 0 mm | - | - | - |
| 1777841227 | 15° C | 29% | - | 0 mm | - | - | - |
| 1777840327 | 14.44° C | 30% | - | 0 mm | - | - | - |
* Rain latest hour (hover to see other rain measurements)
** Current wind speed in m/s (hover to see current wind gust speed)